createdAt,value
2022-10-28T00:02:15.632Z,14.77
2022-10-28T00:07:17.356Z,14.87
2022-10-28T00:12:18.985Z,14.81
2022-10-28T00:17:20.658Z,14.77
2022-10-28T00:22:22.309Z,14.78
2022-10-28T00:27:23.942Z,14.76
2022-10-28T00:32:25.583Z,14.73
2022-10-28T00:37:27.254Z,14.67
2022-10-28T00:42:28.913Z,14.56
2022-10-28T00:47:55.983Z,14.39
2022-10-28T00:53:10.305Z,14.27
2022-10-28T00:58:11.929Z,14.11
2022-10-28T01:03:13.584Z,14.03
2022-10-28T01:08:15.207Z,14.17
2022-10-28T01:13:32.440Z,14.24
2022-10-28T01:18:49.813Z,14.29
2022-10-28T01:24:11.065Z,14.68
2022-10-28T01:29:25.460Z,14.89
2022-10-28T01:34:45.413Z,14.93
2022-10-28T01:39:51.193Z,14.95
2022-10-28T01:45:03.405Z,14.98
2022-10-28T01:50:11.355Z,15.06
2022-10-28T01:55:22.566Z,15.23
2022-10-28T02:00:24.278Z,15.25
2022-10-28T02:05:39.420Z,15.21
2022-10-28T02:10:45.286Z,15.17
2022-10-28T02:15:49.180Z,15.17
2022-10-28T02:20:56.865Z,15.12
2022-10-28T02:26:14.333Z,15.06
2022-10-28T02:31:25.765Z,15.07
2022-10-28T02:36:28.794Z,15.02
2022-10-28T02:41:40.526Z,14.92
2022-10-28T02:46:43.763Z,14.79
2022-10-28T02:51:53.591Z,14.66
2022-10-28T02:56:55.879Z,14.57
2022-10-28T03:01:57.696Z,14.54
2022-10-28T03:06:59.491Z,14.53
2022-10-28T03:12:01.157Z,14.58
2022-10-28T03:17:02.759Z,14.73
2022-10-28T03:22:04.359Z,14.86
2022-10-28T03:27:06.045Z,15.03
2022-10-28T03:32:07.802Z,15.12
2022-10-28T03:37:09.592Z,15.17
2022-10-28T03:42:11.209Z,15.23
2022-10-28T03:47:12.841Z,15.27
2022-10-28T03:52:14.486Z,15.31
2022-10-28T03:57:16.119Z,15.33
2022-10-28T04:02:17.875Z,15.30
2022-10-28T04:07:19.650Z,15.30
2022-10-28T04:12:21.327Z,15.32
2022-10-28T04:17:22.962Z,15.31
2022-10-28T04:22:24.597Z,15.27
2022-10-28T04:27:26.231Z,15.27
2022-10-28T04:32:27.915Z,15.23
2022-10-28T04:37:29.566Z,15.24
2022-10-28T04:42:31.302Z,15.23
2022-10-28T04:47:32.934Z,15.20
2022-10-28T04:52:34.581Z,15.14
2022-10-28T04:57:36.217Z,15.14
2022-10-28T05:02:39.096Z,15.12
2022-10-28T05:07:43.150Z,15.11
2022-10-28T05:12:45.464Z,15.08
2022-10-28T05:17:47.146Z,14.91
2022-10-28T05:22:50.258Z,14.76
2022-10-28T05:27:52.087Z,14.66
2022-10-28T05:33:01.726Z,14.54
2022-10-28T05:38:03.769Z,14.47
2022-10-28T05:43:05.438Z,14.45
2022-10-28T05:48:07.193Z,14.45
2022-10-28T05:53:08.834Z,14.43
2022-10-28T05:58:10.506Z,14.41
2022-10-28T06:03:12.469Z,14.40
2022-10-28T06:08:14.200Z,14.35
2022-10-28T06:13:14.357Z,14.30
2022-10-28T06:18:18.863Z,14.23
2022-10-28T06:23:21.452Z,14.14
2022-10-28T06:28:23.129Z,14.08
2022-10-28T06:33:25.494Z,14.02
2022-10-28T06:38:27.399Z,13.97
2022-10-28T06:43:29.070Z,13.89
2022-10-28T06:48:32.239Z,13.80
2022-10-28T06:53:33.937Z,13.75
2022-10-28T06:58:35.649Z,13.72
2022-10-28T07:03:37.314Z,13.84
2022-10-28T07:08:38.977Z,13.89
2022-10-28T07:13:42.464Z,13.95
2022-10-28T07:18:45.910Z,14.03
2022-10-28T07:23:47.555Z,14.14
2022-10-28T07:28:49.201Z,14.23
2022-10-28T07:33:54.443Z,14.31
2022-10-28T07:38:56.144Z,14.40
2022-10-28T07:43:57.976Z,14.50
2022-10-28T07:48:59.901Z,14.60
2022-10-28T07:54:01.544Z,14.69
2022-10-28T07:59:03.161Z,14.78
2022-10-28T08:04:04.822Z,14.86
2022-10-28T08:09:06.460Z,14.94
2022-10-28T08:14:08.096Z,15.01
2022-10-28T08:19:10.856Z,15.10
2022-10-28T08:24:12.540Z,15.18
2022-10-28T08:29:14.187Z,15.25
2022-10-28T08:34:15.930Z,15.38
2022-10-28T08:39:17.582Z,15.54
2022-10-28T08:44:31.499Z,15.79
2022-10-28T08:49:34.273Z,16.14
2022-10-28T08:54:37.215Z,16.61
2022-10-28T08:59:40.094Z,17.07
2022-10-28T09:04:42.690Z,17.41
2022-10-28T09:09:45.058Z,17.67
2022-10-28T09:14:52.467Z,17.89
2022-10-28T09:20:00.164Z,18.12
2022-10-28T09:25:03.170Z,18.31
2022-10-28T09:30:10.654Z,18.57
2022-10-28T09:35:14.037Z,18.75
2022-10-28T09:40:24.199Z,18.87
2022-10-28T09:45:27.628Z,19.14
2022-10-28T09:50:31.080Z,19.51
2022-10-28T09:55:32.967Z,19.74
2022-10-28T10:00:34.587Z,19.91
2022-10-28T10:05:39.208Z,20.19
2022-10-28T10:10:57.591Z,20.29
2022-10-28T10:16:02.039Z,20.52
2022-10-28T10:21:03.812Z,20.65
2022-10-28T10:26:16.050Z,20.77
2022-10-28T10:31:22.333Z,20.80
2022-10-28T10:36:28.239Z,21.07
2022-10-28T10:41:43.253Z,21.15
2022-10-28T10:46:44.878Z,21.26
2022-10-28T10:51:53.252Z,21.31
2022-10-28T10:56:55.492Z,21.38
2022-10-28T11:01:57.771Z,21.56
2022-10-28T11:06:59.929Z,21.77
2022-10-28T11:12:01.723Z,21.85
2022-10-28T11:17:03.687Z,21.94
2022-10-28T11:22:23.468Z,22.08
2022-10-28T11:27:40.302Z,22.28
2022-10-28T11:33:01.393Z,22.34
2022-10-28T11:38:18.446Z,22.40
2022-10-28T11:43:32.839Z,22.47
2022-10-28T11:49:02.475Z,22.49
2022-10-28T11:54:28.285Z,22.59
2022-10-28T12:00:06.837Z,22.69
2022-10-28T12:05:33.974Z,22.71
2022-10-28T12:11:00.934Z,22.87
2022-10-28T12:16:18.362Z,23.19
2022-10-28T12:21:19.982Z,23.51
2022-10-28T12:26:36.152Z,23.58
2022-10-28T12:31:44.785Z,23.60
2022-10-28T12:36:52.972Z,23.47
2022-10-28T12:42:16.697Z,23.37
2022-10-28T12:47:43.403Z,23.40
2022-10-28T12:53:03.511Z,23.44
2022-10-28T12:58:28.345Z,23.24
2022-10-28T13:03:31.099Z,23.21
2022-10-28T13:08:53.782Z,23.34
2022-10-28T13:14:20.141Z,23.62
2022-10-28T13:19:38.340Z,23.84
2022-10-28T13:24:48.444Z,23.92
2022-10-28T13:29:55.116Z,23.87
2022-10-28T13:34:56.871Z,23.89
2022-10-28T13:39:58.520Z,24.03
2022-10-28T13:45:01.104Z,24.00
2022-10-28T13:50:09.565Z,23.97
2022-10-28T13:55:14.186Z,23.90
2022-10-28T14:00:18.566Z,23.78
2022-10-28T14:05:37.598Z,23.64
2022-10-28T14:10:39.402Z,23.52
2022-10-28T14:15:41.114Z,23.36
2022-10-28T14:20:48.795Z,23.16
2022-10-28T14:25:50.294Z,22.91
2022-10-28T14:31:11.352Z,22.80
2022-10-28T14:36:18.918Z,22.64
2022-10-28T14:41:23.611Z,22.51
2022-10-28T14:46:37.960Z,22.36
2022-10-28T14:51:40.163Z,22.24
2022-10-28T14:56:41.904Z,22.11
2022-10-28T15:01:56.275Z,21.99
2022-10-28T15:06:58.069Z,21.90
2022-10-28T15:12:07.919Z,21.77
2022-10-28T15:17:20.444Z,21.61
2022-10-28T15:22:23.989Z,21.48
2022-10-28T15:27:30.673Z,21.36
2022-10-28T15:32:34.050Z,21.24
2022-10-28T15:37:35.700Z,21.14
2022-10-28T15:42:44.952Z,21.01
2022-10-28T15:47:46.755Z,20.90
2022-10-28T15:52:50.098Z,20.80
2022-10-28T15:57:59.488Z,20.73
2022-10-28T16:03:05.487Z,20.64
2022-10-28T16:08:27.141Z,20.53
2022-10-28T16:13:31.667Z,20.42
2022-10-28T16:18:35.324Z,20.35
2022-10-28T16:23:39.087Z,20.25
2022-10-28T16:28:44.991Z,20.19
2022-10-28T16:33:47.009Z,20.11
2022-10-28T16:38:48.614Z,20.05
2022-10-28T16:43:50.239Z,19.97
2022-10-28T16:48:51.861Z,19.92
2022-10-28T16:53:53.478Z,19.83
2022-10-28T16:58:55.154Z,19.75
2022-10-28T17:03:56.775Z,19.70
2022-10-28T17:09:02.967Z,19.64
2022-10-28T17:14:05.342Z,19.58
2022-10-28T17:19:06.982Z,19.53
2022-10-28T17:24:08.646Z,19.49
2022-10-28T17:29:10.383Z,19.44
2022-10-28T17:34:12.092Z,19.42
2022-10-28T17:39:17.736Z,19.37
2022-10-28T17:44:21.360Z,19.36
2022-10-28T17:49:22.998Z,19.31
2022-10-28T17:59:31.180Z,19.21
2022-10-28T18:04:33.216Z,19.18
2022-10-28T18:09:35.280Z,19.15
2022-10-28T18:14:36.924Z,19.10
2022-10-28T18:19:38.601Z,19.05
2022-10-28T18:24:40.357Z,19.02
2022-10-28T18:29:42.007Z,18.97
2022-10-28T18:34:43.662Z,18.94
2022-10-28T18:39:45.302Z,18.93
2022-10-28T18:44:46.987Z,18.87
2022-10-28T18:49:48.645Z,18.83
2022-10-28T18:54:50.275Z,18.81
2022-10-28T19:00:17.488Z,18.80
2022-10-28T19:05:13.606Z,18.76
2022-10-28T19:10:15.370Z,18.73
2022-10-28T19:15:17.043Z,18.72
2022-10-28T19:20:18.696Z,18.67
2022-10-28T19:25:20.364Z,18.72
2022-10-28T19:30:21.994Z,18.69
